createdAt,value
2023-02-26T00:00:41.633Z,-1.70
2023-02-26T00:05:50.186Z,-1.70
2023-02-26T00:11:04.389Z,-1.70
2023-02-26T00:16:08.002Z,-1.70
2023-02-26T00:32:11.730Z,-1.80
2023-02-26T01:11:21.445Z,-1.90
2023-02-26T03:46:44.835Z,-1.60
2023-02-26T03:51:36.940Z,-1.60
2023-02-26T03:56:57.078Z,-1.60
2023-02-26T04:02:03.653Z,-1.60
2023-02-26T04:07:08.204Z,-1.50
2023-02-26T04:12:06.191Z,-1.50
2023-02-26T04:17:11.959Z,-1.60
2023-02-26T04:21:59.365Z,-1.50
2023-02-26T04:26:49.226Z,-1.50
2023-02-26T04:31:34.313Z,-1.50
2023-02-26T04:36:29.430Z,-1.60
2023-02-26T04:41:27.496Z,-1.60
2023-02-26T04:46:20.012Z,-1.50
2023-02-26T04:51:03.557Z,-1.50
2023-02-26T04:55:52.550Z,-1.50
2023-02-26T05:00:38.429Z,-1.60
2023-02-26T05:05:28.157Z,-1.50
2023-02-26T05:10:15.024Z,-1.60
2023-02-26T05:15:04.071Z,-1.40
2023-02-26T05:19:50.638Z,-1.50
2023-02-26T05:24:43.923Z,-1.50
2023-02-26T05:29:27.851Z,-1.50
2023-02-26T05:34:14.211Z,-1.60
2023-02-26T05:39:03.234Z,-1.50
2023-02-26T05:43:50.516Z,-1.50
2023-02-26T05:48:38.928Z,-1.40
2023-02-26T05:53:27.278Z,-1.50
2023-02-26T05:58:14.644Z,-1.50
2023-02-26T06:03:04.614Z,-1.50
2023-02-26T06:07:51.467Z,-1.60
2023-02-26T06:12:40.191Z,-1.50
2023-02-26T06:17:29.376Z,-1.40
2023-02-26T06:22:16.603Z,-1.40
2023-02-26T06:27:03.750Z,-1.40
2023-02-26T06:31:52.511Z,-1.40
2023-02-26T06:36:39.682Z,-1.40
2023-02-26T06:41:29.638Z,-1.40
2023-02-26T06:46:15.204Z,-1.30
2023-02-26T06:51:07.374Z,-1.30
2023-02-26T06:55:53.071Z,-1.30
2023-02-26T07:00:39.167Z,-1.20
2023-02-26T07:05:27.213Z,-1.20
2023-02-26T07:10:15.922Z,-1.20
2023-02-26T07:15:02.618Z,-1.00
2023-02-26T07:19:51.375Z,-1.10
2023-02-26T07:24:40.966Z,-1.10
2023-02-26T07:29:29.137Z,-1.00
2023-02-26T07:34:14.056Z,-1.00
2023-02-26T07:39:04.212Z,-1.00
2023-02-26T07:43:51.860Z,-0.90
2023-02-26T07:48:39.339Z,-0.70
2023-02-26T07:53:27.002Z,-0.80
2023-02-26T07:58:14.290Z,-0.80
2023-02-26T08:03:03.676Z,-0.80
2023-02-26T08:07:51.800Z,-0.80
2023-02-26T08:12:41.713Z,-0.70
2023-02-26T08:17:27.393Z,-0.30
2023-02-26T08:22:14.377Z,0.00
2023-02-26T08:27:05.480Z,0.10
2023-02-26T08:31:51.310Z,0.10
2023-02-26T08:36:38.256Z,0.10
2023-02-26T08:41:30.703Z,0.00
2023-02-26T08:46:16.793Z,0.00
2023-02-26T08:51:02.464Z,0.00
2023-02-26T08:55:52.637Z,0.40
2023-02-26T09:00:40.089Z,0.60
2023-02-26T09:05:28.183Z,0.80
2023-02-26T09:10:17.728Z,0.80
2023-02-26T09:15:15.316Z,1.00
2023-02-26T09:20:09.670Z,0.70
2023-02-26T09:24:58.047Z,0.90
2023-02-26T09:29:55.558Z,1.10
2023-02-26T09:34:45.829Z,1.10
2023-02-26T09:39:39.957Z,0.90
2023-02-26T09:44:26.332Z,0.80
2023-02-26T09:49:27.704Z,0.60
2023-02-26T09:54:20.356Z,0.80
2023-02-26T09:59:07.100Z,1.20
2023-02-26T10:04:05.916Z,1.30
2023-02-26T10:09:31.084Z,1.50
2023-02-26T10:14:31.947Z,1.40
2023-02-26T10:19:34.720Z,1.70
2023-02-26T10:38:15.185Z,2.10
2023-02-26T10:45:30.174Z,2.20
2023-02-26T10:50:00.523Z,2.10
2023-02-26T11:19:05.185Z,3.20
2023-02-26T11:24:58.613Z,3.80
2023-02-26T11:29:46.114Z,4.10
2023-02-26T11:40:41.419Z,3.60
2023-02-26T11:45:31.951Z,3.30
2023-02-26T11:56:07.863Z,2.80
2023-02-26T12:01:00.032Z,2.10
2023-02-26T12:05:43.958Z,1.80
2023-02-26T12:10:47.246Z,1.90
2023-02-26T12:16:40.335Z,2.10
2023-02-26T12:21:59.366Z,2.20
2023-02-26T12:27:05.335Z,2.40
2023-02-26T12:32:21.987Z,2.80
2023-02-26T12:37:42.316Z,2.80
2023-02-26T12:42:51.945Z,2.50
2023-02-26T12:48:07.407Z,2.20
2023-02-26T12:53:46.589Z,1.90
2023-02-26T12:59:02.442Z,1.50
2023-02-26T13:04:21.251Z,1.40
2023-02-26T13:09:31.271Z,1.50
2023-02-26T13:14:46.810Z,1.40
2023-02-26T13:19:56.612Z,1.60
2023-02-26T13:24:53.292Z,1.90
2023-02-26T13:29:56.509Z,2.40
2023-02-26T13:35:05.185Z,2.60
2023-02-26T13:40:07.108Z,2.60
2023-02-26T13:45:26.121Z,2.50
2023-02-26T13:50:51.092Z,2.20
2023-02-26T13:55:52.874Z,1.30
2023-02-26T14:00:57.156Z,0.90
2023-02-26T14:06:16.452Z,1.20
2023-02-26T14:11:05.032Z,1.30
2023-02-26T14:16:05.579Z,1.20
2023-02-26T14:21:25.391Z,1.30
2023-02-26T14:26:19.803Z,1.30
2023-02-26T14:31:23.259Z,1.30
2023-02-26T14:36:19.062Z,1.50
2023-02-26T14:41:17.308Z,1.40
2023-02-26T14:46:03.973Z,1.10
2023-02-26T14:51:00.846Z,0.90
2023-02-26T14:56:23.012Z,1.00
2023-02-26T15:01:25.113Z,1.60
2023-02-26T15:06:31.822Z,2.00
2023-02-26T15:11:36.876Z,1.90
2023-02-26T15:16:39.633Z,1.90
2023-02-26T15:21:47.834Z,1.80
2023-02-26T15:27:06.677Z,1.40
2023-02-26T15:31:55.539Z,1.20
2023-02-26T15:36:44.346Z,0.90
2023-02-26T15:41:30.038Z,0.80
2023-02-26T15:46:16.472Z,0.90
2023-02-26T15:51:07.870Z,0.90
2023-02-26T15:55:54.577Z,0.80
2023-02-26T16:00:39.658Z,0.80
2023-02-26T16:05:28.206Z,0.70
2023-02-26T16:10:31.204Z,0.40
2023-02-26T16:15:34.627Z,0.20
2023-02-26T16:20:44.949Z,0.10
2023-02-26T16:25:43.540Z,-0.10
2023-02-26T16:30:35.198Z,-0.10
2023-02-26T16:35:23.063Z,-0.10
2023-02-26T16:40:25.894Z,-0.30
2023-02-26T16:45:42.776Z,-0.40
2023-02-26T16:50:32.499Z,-0.40
2023-02-26T16:55:19.463Z,-0.50
2023-02-26T17:00:10.211Z,-0.50
2023-02-26T17:05:03.872Z,-0.60
2023-02-26T17:10:00.056Z,-0.60
2023-02-26T17:15:02.790Z,-0.60
2023-02-26T17:19:54.800Z,-0.50
2023-02-26T17:24:40.991Z,-0.60
2023-02-26T17:29:32.256Z,-0.60
2023-02-26T17:34:15.668Z,-0.40
2023-02-26T17:39:02.178Z,-0.20
2023-02-26T17:43:51.574Z,-0.10
2023-02-26T17:48:38.810Z,-0.10
2023-02-26T17:53:40.758Z,0.00
2023-02-26T17:58:33.008Z,0.00
2023-02-26T18:03:21.896Z,-0.10
2023-02-26T18:08:07.680Z,0.00
2023-02-26T18:12:54.257Z,-0.30
2023-02-26T18:17:44.303Z,-0.50
2023-02-26T18:22:33.809Z,-0.60
2023-02-26T18:27:23.891Z,-0.80
2023-02-26T18:32:07.474Z,-0.80
2023-02-26T18:36:55.482Z,-1.00
2023-02-26T18:41:44.905Z,-1.00
2023-02-26T18:46:34.948Z,-1.00
2023-02-26T18:51:18.891Z,-0.90
2023-02-26T18:56:08.689Z,-0.80
2023-02-26T19:00:54.598Z,-0.70
2023-02-26T19:05:43.238Z,-0.60
2023-02-26T19:10:31.672Z,-0.60
2023-02-26T19:15:18.478Z,-0.70
2023-02-26T19:20:08.957Z,-0.70
2023-02-26T19:24:56.830Z,-0.70
2023-02-26T19:29:42.500Z,-1.00
2023-02-26T19:34:30.628Z,-1.10
2023-02-26T19:39:20.523Z,-1.30
2023-02-26T19:44:07.636Z,-1.60
2023-02-26T19:48:56.973Z,-1.80
2023-02-26T19:53:42.555Z,-1.80
2023-02-26T19:58:31.013Z,-1.90
2023-02-26T20:03:18.177Z,-1.80
2023-02-26T20:08:07.338Z,-1.60
2023-02-26T20:12:53.748Z,-1.70
2023-02-26T20:17:42.358Z,-1.60
2023-02-26T20:22:34.589Z,-1.50
2023-02-26T20:27:17.955Z,-1.40
2023-02-26T20:32:07.471Z,-1.40
2023-02-26T20:36:55.830Z,-1.50
2023-02-26T20:41:43.163Z,-1.60
2023-02-26T20:46:33.023Z,-1.80
2023-02-26T20:51:18.408Z,-1.70
2023-02-26T20:56:08.266Z,-1.90
2023-02-26T21:00:57.009Z,-1.90
2023-02-26T21:05:42.821Z,-2.00
2023-02-26T21:10:32.677Z,-2.10
2023-02-26T21:15:18.936Z,-2.10
2023-02-26T21:20:08.615Z,-2.10
2023-02-26T21:24:53.844Z,-2.10
2023-02-26T21:29:42.200Z,-2.20
2023-02-26T21:34:34.093Z,-2.00
2023-02-26T21:39:19.189Z,-2.10
